Dades meteomassalio
Diari Summary for Noviembre 17, 2017 Units:  Metric    English   Both
« Previous Day
Next Day »
Diari Semanal Mensual Anual Personalitzat
  Maxima: Minima: Mijana:
Temperatura: 17.8 °C -2.8 °C 5 °C
Rosada: 2.0 °C -5.7 °C -3.1 °C
Humitat: 82 % 33 % 59 %
Velocitat del vent: 27.8 km/h 0.0 km/h 3.4 km/h
Racha vent: 27.8 km/h - -
Vent:- - NW
Pressio: 1025.6 hPa 1022.6 hPa -
Pluja: 0.0 mm    
Historical Graphs
 
 
Tabular Data for Noviembre 17, 2017
Time Temperature Dew Point Pressure Wind Wind Speed Wind Gust Humidity Rainfall Rate (Hourly) solar Conditions
00:01 -0.6 °C -5.6 °C 1025.3 hPa Calm     69 % 0.0 mm 0.0 W/m2 CLR
00:06 -0.6 °C -5.6 °C 1025.3 hPa Calm     69 % 0.0 mm 0.0 W/m2 CLR
00:11 -0.6 °C -5.3 °C 1024.9 hPa Calm     70 % 0.0 mm 0.0 W/m2 CLR
00:16 -0.6 °C -5.3 °C 1025.3 hPa Calm     70 % 0.0 mm 0.0 W/m2 CLR
00:26 0.0 °C -4.6 °C 1025.3 hPa Calm     71 % 0.0 mm 0.0 W/m2 CLR
00:31 0.0 °C -4.4 °C 1025.3 hPa Calm     72 % 0.0 mm 0.0 W/m2 CLR
00:36 0.0 °C -4.4 °C 1025.3 hPa Calm     72 % 0.0 mm 0.0 W/m2 CLR
00:42 -0.6 °C -5.0 °C 1025.3 hPa Calm     72 % 0.0 mm 0.0 W/m2 CLR
00:46 -0.6 °C -5.2 °C 1025.3 hPa Calm     71 % 0.0 mm 0.0 W/m2 CLR
00:51 -0.6 °C -5.2 °C 1025.3 hPa Calm     71 % 0.0 mm 0.0 W/m2 CLR
00:57 -1.1 °C -5.5 °C 1025.3 hPa Calm     72 % 0.0 mm 0.0 W/m2 CLR
01:01 -1.1 °C -5.5 °C 1025.3 hPa Calm     72 % 0.0 mm 0.0 W/m2 CLR
01:07 -1.1 °C -5.5 °C 1025.3 hPa Calm     72 % 0.0 mm 0.0 W/m2 CLR
01:12 -0.6 °C -5.0 °C 1024.9 hPa Calm     72 % 0.0 mm 0.0 W/m2 CLR
01:22 -0.6 °C -4.8 °C 1024.9 hPa Calm     73 % 0.0 mm 0.0 W/m2 CLR
01:27 -1.1 °C -5.3 °C 1024.9 hPa Calm     73 % 0.0 mm 0.0 W/m2 CLR
01:32 -0.6 °C -4.6 °C 1024.9 hPa Calm     74 % 0.0 mm 0.0 W/m2 CLR
01:37 -0.6 °C -4.6 °C 1024.9 hPa Calm     74 % 0.0 mm 0.0 W/m2 CLR
01:42 -0.6 °C -4.6 °C 1024.9 hPa Calm     74 % 0.0 mm 0.0 W/m2 CLR
01:47 -0.6 °C -4.6 °C 1024.6 hPa Calm     74 % 0.0 mm 0.0 W/m2 CLR
01:52 -0.6 °C -4.8 °C 1024.9 hPa Calm     73 % 0.0 mm 0.0 W/m2 CLR
01:57 -0.6 °C -4.8 °C 1024.9 hPa Calm     73 % 0.0 mm 0.0 W/m2 CLR
02:02 -1.1 °C -5.2 °C 1024.9 hPa Calm     74 % 0.0 mm 0.0 W/m2 CLR
02:07 -1.1 °C -5.2 °C 1024.6 hPa Calm     74 % 0.0 mm 0.0 W/m2 CLR
02:12 -1.1 °C -5.0 °C 1024.6 hPa Calm     75 % 0.0 mm 0.0 W/m2 CLR
02:17 -1.1 °C -5.0 °C 1024.6 hPa Calm     75 % 0.0 mm 0.0 W/m2 CLR
02:22 -0.6 °C -4.4 °C 1024.6 hPa Calm     75 % 0.0 mm 0.0 W/m2 CLR
02:27 -0.6 °C -4.4 °C 1024.6 hPa Calm     75 % 0.0 mm 0.0 W/m2 CLR
02:32 -0.6 °C -4.4 °C 1024.6 hPa Calm     75 % 0.0 mm 0.0 W/m2 CLR
02:37 -0.6 °C -4.4 °C 1024.9 hPa Calm     75 % 0.0 mm 0.0 W/m2 CLR
02:42 -0.6 °C -4.4 °C 1024.9 hPa Calm     75 % 0.0 mm 0.0 W/m2 CLR
02:47 -1.1 °C -5.0 °C 1024.9 hPa Calm     75 % 0.0 mm 0.0 W/m2 CLR
02:52 -1.1 °C -4.8 °C 1024.9 hPa Calm     76 % 0.0 mm 0.0 W/m2 CLR
02:57 -1.1 °C -4.8 °C 1024.9 hPa Calm     76 % 0.0 mm 0.0 W/m2 CLR
03:02 -0.6 °C -4.3 °C 1024.6 hPa Calm     76 % 0.0 mm 0.0 W/m2 CLR
03:07 -0.6 °C -4.4 °C 1024.9 hPa Calm     75 % 0.0 mm 0.0 W/m2 CLR
03:12 -0.6 °C -4.4 °C 1024.9 hPa Calm     75 % 0.0 mm 0.0 W/m2 CLR
03:17 -0.6 °C -4.1 °C 1024.6 hPa Calm     77 % 0.0 mm 0.0 W/m2 CLR
03:22 -0.6 °C -4.1 °C 1024.6 hPa Calm     77 % 0.0 mm 0.0 W/m2 CLR
03:27 -1.1 °C -4.6 °C 1024.9 hPa Calm     77 % 0.0 mm 0.0 W/m2 CLR
03:32 -1.1 °C -4.8 °C 1024.9 hPa Calm     76 % 0.0 mm 0.0 W/m2 CLR
03:37 -1.1 °C -4.8 °C 1024.6 hPa Calm     76 % 0.0 mm 0.0 W/m2 CLR
03:42 -1.1 °C -4.8 °C 1024.6 hPa Calm     76 % 0.0 mm 0.0 W/m2 CLR
03:47 -1.1 °C -4.8 °C 1024.9 hPa Calm     76 % 0.0 mm 0.0 W/m2 CLR
03:52 -1.7 °C -5.3 °C 1024.9 hPa Calm     76 % 0.0 mm 0.0 W/m2 CLR
03:57 -1.7 °C -5.3 °C 1024.9 hPa Calm     76 % 0.0 mm 0.0 W/m2 CLR
04:02 -1.7 °C -5.2 °C 1024.6 hPa Calm     77 % 0.0 mm 0.0 W/m2 CLR
04:07 -1.1 °C -4.4 °C 1024.6 hPa Calm     78 % 0.0 mm 0.0 W/m2 CLR
04:12 -1.1 °C -4.4 °C 1024.6 hPa Calm     78 % 0.0 mm 0.0 W/m2 CLR
04:18 -1.1 °C -4.8 °C 1024.6 hPa Calm     76 % 0.0 mm 0.0 W/m2 CLR
04:22 -1.1 °C -4.6 °C 1024.6 hPa Calm     77 % 0.0 mm 0.0 W/m2 CLR
04:23 -1.1 °C -4.6 °C 1024.6 hPa Calm     77 % 0.0 mm 0.0 W/m2 CLR
04:24 -1.1 °C -4.6 °C 1024.6 hPa Calm     77 % 0.0 mm 0.0 W/m2 CLR
04:27 -1.1 °C -4.6 °C 1024.6 hPa Calm     77 % 0.0 mm 0.0 W/m2 CLR
04:31 -1.1 °C -4.6 °C 1024.6 hPa Calm     77 % 0.0 mm 0.0 W/m2 CLR
04:36 -1.1 °C -4.8 °C 1024.6 hPa Calm     76 % 0.0 mm 0.0 W/m2 CLR
04:41 -1.1 °C -4.6 °C 1024.6 hPa Calm     77 % 0.0 mm 0.0 W/m2 CLR
04:46 -1.1 °C -4.6 °C 1024.6 hPa Calm     77 % 0.0 mm 0.0 W/m2 CLR
04:51 -1.1 °C -4.4 °C 1024.6 hPa Calm     78 % 0.0 mm 0.0 W/m2 CLR
04:56 -1.1 °C -4.4 °C 1024.6 hPa Calm     78 % 0.0 mm 0.0 W/m2 CLR
05:01 -1.1 °C -4.4 °C 1024.6 hPa Calm     78 % 0.0 mm 0.0 W/m2 CLR
05:06 -1.1 °C -4.1 °C 1024.6 hPa Calm     80 % 0.0 mm 0.0 W/m2 CLR
05:11 -1.1 °C -4.1 °C 1024.6 hPa Calm     80 % 0.0 mm 0.0 W/m2 CLR
05:16 -1.1 °C -4.3 °C 1024.6 hPa Calm     79 % 0.0 mm 0.0 W/m2 CLR
05:21 -1.1 °C -4.3 °C 1024.6 hPa Calm     79 % 0.0 mm 0.0 W/m2 CLR
05:26 -1.1 °C -4.3 °C 1024.3 hPa Calm     79 % 0.0 mm 0.0 W/m2 CLR
05:31 -1.1 °C -4.4 °C 1024.6 hPa Calm     78 % 0.0 mm 0.0 W/m2 CLR
05:36 -1.1 °C -4.3 °C 1024.6 hPa Calm     79 % 0.0 mm 0.0 W/m2 CLR
05:41 -1.7 °C -4.8 °C 1024.6 hPa Calm     79 % 0.0 mm 0.0 W/m2 CLR
05:46 -1.7 °C -4.5 °C 1024.6 hPa Calm     81 % 0.0 mm 0.0 W/m2 CLR
05:51 -1.7 °C -4.5 °C 1024.3 hPa Calm     81 % 0.0 mm 0.0 W/m2 CLR
05:56 -1.7 °C -4.5 °C 1024.3 hPa Calm     81 % 0.0 mm 0.0 W/m2 CLR
06:01 -1.7 °C -4.8 °C 1024.3 hPa Calm     79 % 0.0 mm 0.0 W/m2 CLR
06:06 -1.7 °C -5.0 °C 1024.3 hPa Calm     78 % 0.0 mm 0.0 W/m2 CLR
06:11 -1.7 °C -4.7 °C 1024.6 hPa Calm     80 % 0.0 mm 0.0 W/m2 CLR
06:16 -1.7 °C -4.7 °C 1024.6 hPa Calm     80 % 0.0 mm 0.0 W/m2 CLR
06:21 -1.7 °C -4.7 °C 1024.6 hPa Calm     80 % 0.0 mm 0.0 W/m2 CLR
06:26 -1.7 °C -4.8 °C 1024.6 hPa Calm     79 % 0.0 mm 0.0 W/m2 CLR
06:31 -1.7 °C -4.7 °C 1024.6 hPa Calm     80 % 0.0 mm 0.0 W/m2 CLR
06:37 -1.7 °C -4.5 °C 1024.6 hPa Calm     81 % 0.0 mm 0.0 W/m2 CLR
06:42 -1.7 °C -4.7 °C 1024.6 hPa Calm     80 % 0.0 mm 0.0 W/m2 CLR
06:47 -1.7 °C -4.7 °C 1024.6 hPa Calm     80 % 0.0 mm 0.0 W/m2 CLR
06:52 -1.7 °C -4.5 °C 1024.6 hPa Calm     81 % 0.0 mm 0.0 W/m2 CLR
06:57 -1.7 °C -4.5 °C 1024.6 hPa Calm     81 % 0.0 mm 0.0 W/m2 CLR
07:02 -1.7 °C -4.5 °C 1024.6 hPa Calm     81 % 0.0 mm 0.0 W/m2 CLR
07:07 -2.2 °C -4.9 °C 1024.6 hPa Calm     82 % 0.0 mm 0.0 W/m2 CLR
07:12 -2.2 °C -5.1 °C 1024.6 hPa Calm     81 % 0.0 mm 0.0 W/m2 CLR
07:17 -2.2 °C -5.1 °C 1024.6 hPa Calm     81 % 0.0 mm 0.0 W/m2 CLR
07:22 -2.2 °C -4.9 °C 1024.9 hPa Calm     82 % 0.0 mm 0.0 W/m2 CLR
07:27 -2.2 °C -4.9 °C 1024.9 hPa Calm     82 % 0.0 mm 0.0 W/m2 CLR
07:32 -2.2 °C -4.9 °C 1024.9 hPa Calm     82 % 0.0 mm 0.0 W/m2 CLR
07:37 -2.8 °C -5.6 °C 1024.9 hPa Calm     81 % 0.0 mm 0.0 W/m2 CLR
07:42 -2.2 °C -5.2 °C 1024.9 hPa Calm     80 % 0.0 mm 0.0 W/m2 OVC
07:47 -2.2 °C -5.2 °C 1024.9 hPa Calm     80 % 0.0 mm 0.0 W/m2 OVC
07:52 -2.2 °C -5.1 °C 1024.9 hPa Calm     81 % 0.0 mm 5.0 W/m2 OVC
07:57 -2.2 °C -4.9 °C 1024.9 hPa Calm     82 % 0.0 mm 7.0 W/m2 OVC
08:02 -2.2 °C -4.9 °C 1024.9 hPa Calm     82 % 0.0 mm 11.0 W/m2 OVC
08:07 -2.2 °C -4.9 °C 1024.9 hPa Calm     82 % 0.0 mm 12.0 W/m2 OVC
08:11 -2.2 °C -4.9 °C 1024.9 hPa Calm     82 % 0.0 mm 12.0 W/m2 OVC
08:16 -1.7 °C -4.5 °C 1024.9 hPa Calm     81 % 0.0 mm 16.0 W/m2 OVC
08:17 -2.2 °C -5.2 °C 1024.9 hPa Calm     80 % 0.0 mm 16.0 W/m2 OVC
08:22 -2.2 °C -5.4 °C 1025.3 hPa Calm     79 % 0.0 mm 25.0 W/m2 OVC
08:27 -2.2 °C -5.7 °C 1025.3 hPa Calm     77 % 0.0 mm 37.0 W/m2 OVC
08:32 -1.7 °C -5.2 °C 1025.3 hPa Calm     77 % 0.0 mm 42.0 W/m2 OVC
08:37 -1.7 °C -5.2 °C 1025.3 hPa Calm     77 % 0.0 mm 56.0 W/m2 OVC
08:42 -2.2 °C -5.6 °C 1025.3 hPa Calm     78 % 0.0 mm 69.0 W/m2 OVC
08:47 -2.2 °C -5.6 °C 1025.3 hPa Calm     78 % 0.0 mm 67.0 W/m2 OVC
08:52 -1.7 °C -5.3 °C 1025.6 hPa Calm     76 % 0.0 mm 97.0 W/m2 BKN
08:57 -1.7 °C -5.5 °C 1025.6 hPa Calm     75 % 0.0 mm 109.0 W/m2 SCT
09:02 -0.6 °C -4.6 °C 1025.6 hPa Calm     74 % 0.0 mm 90.0 W/m2 CLR
09:03 -0.6 °C -4.6 °C 1025.6 hPa Calm     74 % 0.0 mm 90.0 W/m2 CLR
09:08 0.0 °C -4.1 °C 1025.6 hPa Calm     74 % 0.0 mm 114.0 W/m2 CLR
09:13 0.0 °C -4.4 °C 1025.6 hPa Calm     72 % 0.0 mm 128.0 W/m2 CLR
09:18 0.6 °C -4.3 °C 1025.6 hPa Calm     70 % 0.0 mm 172.0 W/m2 CLR
09:23 0.6 °C -4.9 °C 1025.6 hPa Calm     67 % 0.0 mm 188.0 W/m2 CLR
09:28 1.1 °C -4.6 °C 1025.6 hPa Calm     66 % 0.0 mm 104.0 W/m2 CLR
09:33 1.1 °C -4.7 °C 1025.6 hPa Calm     65 % 0.0 mm 220.0 W/m2 CLR
09:38 1.1 °C -5.2 °C 1025.6 hPa Calm     63 % 0.0 mm 232.0 W/m2 CLR
09:48 2.8 °C -4.0 °C 1025.6 hPa Calm     61 % 0.0 mm 262.0 W/m2 CLR
09:53 3.3 °C -3.9 °C 1025.6 hPa Calm     59 % 0.0 mm 272.0 W/m2 CLR
09:58 3.9 °C -3.6 °C 1025.6 hPa Calm     58 % 0.0 mm 285.0 W/m2 CLR
10:03 4.4 °C -3.3 °C 1025.6 hPa Calm     57 % 0.0 mm 294.0 W/m2 CLR
10:08 5.0 °C -3.1 °C 1025.6 hPa Calm     56 % 0.0 mm 302.0 W/m2 CLR
10:18 6.1 °C -2.5 °C 1025.6 hPa Calm     54 % 0.0 mm 327.0 W/m2 CLR
10:23 6.7 °C -2.0 °C 1025.6 hPa Calm     54 % 0.0 mm 339.0 W/m2 CLR
10:28 7.2 °C -1.7 °C 1025.6 hPa Calm     53 % 0.0 mm 348.0 W/m2 CLR
10:33 7.2 °C -1.7 °C 1025.6 hPa Calm     53 % 0.0 mm 360.0 W/m2 CLR
10:38 8.3 °C -0.9 °C 1025.6 hPa Calm     52 % 0.0 mm 367.0 W/m2 CLR
10:43 8.3 °C -1.2 °C 1025.6 hPa Calm     51 % 0.0 mm 374.0 W/m2 CLR
10:48 8.9 °C -1.3 °C 1025.6 hPa Calm     49 % 0.0 mm 385.0 W/m2 CLR
10:53 9.4 °C -1.1 °C 1025.6 hPa Calm     48 % 0.0 mm 394.0 W/m2 CLR
10:58 9.4 °C -1.6 °C 1025.6 hPa Calm     46 % 0.0 mm 403.0 W/m2 CLR
11:03 10.6 °C -0.9 °C 1025.6 hPa Calm     45 % 0.0 mm 411.0 W/m2 CLR
11:08 10.6 °C -1.8 °C 1025.6 hPa NNW 13.0 km/h 13.0 km/h 42 % 0.0 mm 417.0 W/m2 CLR
11:13 12.2 °C -0.7 °C 1025.6 hPa NW 18.5 km/h 18.5 km/h 41 % 0.0 mm 422.0 W/m2 CLR
11:18 13.3 °C 0.3 °C 1025.6 hPa NW 18.5 km/h 18.5 km/h 41 % 0.0 mm 431.0 W/m2 CLR
11:23 13.9 °C 0.8 °C 1025.6 hPa NNW 18.5 km/h 18.5 km/h 41 % 0.0 mm 436.0 W/m2 CLR
11:28 13.9 °C 0.5 °C 1025.6 hPa NNW 18.5 km/h 18.5 km/h 40 % 0.0 mm 443.0 W/m2 CLR
11:33 14.4 °C 1.0 °C 1025.6 hPa NNW 24.1 km/h 24.1 km/h 40 % 0.0 mm 448.0 W/m2 CLR
11:38 14.4 °C 1.0 °C 1025.3 hPa NNW 18.5 km/h 18.5 km/h 40 % 0.0 mm 454.0 W/m2 CLR
11:43 15.0 °C 1.2 °C 1025.3 hPa NNW 16.7 km/h 16.7 km/h 39 % 0.0 mm 459.0 W/m2 CLR
11:48 15.0 °C 1.2 °C 1025.3 hPa West 13.0 km/h 13.0 km/h 39 % 0.0 mm 462.0 W/m2 CLR
11:53 15.0 °C 0.8 °C 1025.3 hPa WNW 16.7 km/h 16.7 km/h 38 % 0.0 mm 468.0 W/m2 CLR
11:58 15.0 °C 0.8 °C 1025.3 hPa NNW 18.5 km/h 18.5 km/h 38 % 0.0 mm 471.0 W/m2 CLR
12:03 15.0 °C 0.8 °C 1024.9 hPa NW 16.7 km/h 16.7 km/h 38 % 0.0 mm 476.0 W/m2 CLR
12:08 15.6 °C 1.3 °C 1024.9 hPa NNW 18.5 km/h 18.5 km/h 38 % 0.0 mm 478.0 W/m2 CLR
12:13 15.6 °C 1.3 °C 1024.9 hPa NW 18.5 km/h 18.5 km/h 38 % 0.0 mm 482.0 W/m2 CLR
12:18 15.6 °C 1.3 °C 1024.9 hPa WNW 14.8 km/h 14.8 km/h 38 % 0.0 mm 483.0 W/m2 CLR
12:23 15.6 °C 1.3 °C 1024.9 hPa NNW 18.5 km/h 18.5 km/h 38 % 0.0 mm 487.0 W/m2 CLR
12:28 15.6 °C 1.3 °C 1024.9 hPa WNW 14.8 km/h 14.8 km/h 38 % 0.0 mm 487.0 W/m2 CLR
12:33 15.6 °C 1.3 °C 1024.9 hPa North 17.7 km/h 17.7 km/h 38 % 0.0 mm 489.0 W/m2 CLR
12:38 16.1 °C 1.8 °C 1024.6 hPa NW 11.3 km/h 11.3 km/h 38 % 0.0 mm 490.0 W/m2 CLR
12:43 16.1 °C 1.4 °C 1024.6 hPa NNW 16.7 km/h 16.7 km/h 37 % 0.0 mm 490.0 W/m2 CLR
12:48 15.6 °C 0.9 °C 1024.6 hPa NW 17.7 km/h 17.7 km/h 37 % 0.0 mm 490.0 W/m2 CLR
12:53 15.6 °C 0.9 °C 1024.6 hPa NW 22.2 km/h 22.2 km/h 37 % 0.0 mm 490.0 W/m2 CLR
12:58 16.1 °C 1.4 °C 1024.6 hPa NW 20.9 km/h 20.9 km/h 37 % 0.0 mm 489.0 W/m2 CLR
13:03 16.1 °C 1.4 °C 1024.6 hPa NW 18.5 km/h 18.5 km/h 37 % 0.0 mm 489.0 W/m2 CLR
13:08 16.7 °C 1.9 °C 1024.3 hPa NW 17.7 km/h 17.7 km/h 37 % 0.0 mm 487.0 W/m2 CLR
13:13 16.7 °C 1.5 °C 1024.3 hPa NW 16.7 km/h 16.7 km/h 36 % 0.0 mm 485.0 W/m2 CLR
13:18 16.7 °C 1.5 °C 1024.3 hPa North 19.3 km/h 19.3 km/h 36 % 0.0 mm 482.0 W/m2 CLR
13:23 16.7 °C 1.5 °C 1024.3 hPa NNW 14.8 km/h 14.8 km/h 36 % 0.0 mm 480.0 W/m2 CLR
13:28 16.7 °C 1.1 °C 1024.3 hPa NW 14.8 km/h 14.8 km/h 35 % 0.0 mm 476.0 W/m2 CLR
13:33 16.7 °C 1.5 °C 1024.3 hPa North 20.9 km/h 20.9 km/h 36 % 0.0 mm 475.0 W/m2 CLR
13:38 17.2 °C 2.0 °C 1023.9 hPa NNW 18.5 km/h 18.5 km/h 36 % 0.0 mm 469.0 W/m2 CLR
13:43 16.7 °C 1.5 °C 1023.9 hPa North 16.7 km/h 16.7 km/h 36 % 0.0 mm 466.0 W/m2 CLR
13:48 17.2 °C 1.6 °C 1023.9 hPa North 18.5 km/h 18.5 km/h 35 % 0.0 mm 462.0 W/m2 CLR
13:53 17.2 °C 1.6 °C 1023.9 hPa NW 18.5 km/h 18.5 km/h 35 % 0.0 mm 457.0 W/m2 CLR
13:58 17.2 °C 1.6 °C 1023.9 hPa North 14.8 km/h 14.8 km/h 35 % 0.0 mm 450.0 W/m2 CLR
14:03 17.2 °C 1.6 °C 1023.9 hPa NW 14.8 km/h 14.8 km/h 35 % 0.0 mm 443.0 W/m2 CLR
14:08 17.2 °C 1.6 °C 1023.6 hPa NNW 18.5 km/h 18.5 km/h 35 % 0.0 mm 434.0 W/m2 CLR
14:13 17.2 °C 1.6 °C 1023.6 hPa NW 20.4 km/h 20.4 km/h 35 % 0.0 mm 427.0 W/m2 CLR
14:18 17.2 °C 1.6 °C 1023.6 hPa NW 18.5 km/h 18.5 km/h 35 % 0.0 mm 424.0 W/m2 CLR
14:23 17.2 °C 1.6 °C 1023.6 hPa North 13.0 km/h 13.0 km/h 35 % 0.0 mm 418.0 W/m2 CLR
14:28 17.2 °C 1.6 °C 1023.2 hPa NNW 14.8 km/h 14.8 km/h 35 % 0.0 mm 411.0 W/m2 CLR
14:33 17.8 °C 1.7 °C 1023.2 hPa North 18.5 km/h 18.5 km/h 34 % 0.0 mm 403.0 W/m2 CLR
14:38 17.8 °C 1.7 °C 1023.2 hPa North 20.4 km/h 20.4 km/h 34 % 0.0 mm 396.0 W/m2 CLR
14:43 17.2 °C 1.2 °C 1023.2 hPa NW 16.7 km/h 16.7 km/h 34 % 0.0 mm 388.0 W/m2 CLR
14:48 17.2 °C 1.2 °C 1023.2 hPa North 18.5 km/h 18.5 km/h 34 % 0.0 mm 378.0 W/m2 CLR
14:58 17.2 °C 1.2 °C 1023.2 hPa North 25.9 km/h 25.9 km/h 34 % 0.0 mm 359.0 W/m2 CLR
15:03 17.2 °C 1.2 °C 1023.2 hPa North 27.8 km/h 27.8 km/h 34 % 0.0 mm 350.0 W/m2 CLR
15:08 17.2 °C 1.2 °C 1023.2 hPa NNW 24.1 km/h 24.1 km/h 34 % 0.0 mm 338.0 W/m2 CLR
15:13 17.2 °C 1.2 °C 1022.9 hPa NNW 16.7 km/h 16.7 km/h 34 % 0.0 mm 330.0 W/m2 CLR
15:18 17.2 °C 1.2 °C 1022.9 hPa NNW 13.0 km/h 13.0 km/h 34 % 0.0 mm 315.0 W/m2 CLR
15:23 17.2 °C 0.8 °C 1022.9 hPa North 14.8 km/h 14.8 km/h 33 % 0.0 mm 308.0 W/m2 CLR
15:28 17.2 °C 0.8 °C 1022.9 hPa North 11.1 km/h 11.1 km/h 33 % 0.0 mm 297.0 W/m2 CLR
15:33 17.2 °C 1.2 °C 1022.9 hPa North 14.8 km/h 14.8 km/h 34 % 0.0 mm 287.0 W/m2 CLR
15:38 17.2 °C 0.8 °C 1022.9 hPa North 16.7 km/h 16.7 km/h 33 % 0.0 mm 272.0 W/m2 CLR
15:43 17.2 °C 0.8 °C 1022.9 hPa NNW 14.8 km/h 14.8 km/h 33 % 0.0 mm 260.0 W/m2 CLR
15:49 17.2 °C 0.8 °C 1022.9 hPa North 1.9 km/h   33 % 0.0 mm 246.0 W/m2 CLR
15:54 17.2 °C 0.8 °C 1022.6 hPa North 5.6 km/h 5.6 km/h 33 % 0.0 mm 234.0 W/m2 CLR
15:59 17.2 °C 0.8 °C 1022.6 hPa NNW 3.7 km/h   33 % 0.0 mm 220.0 W/m2 CLR
16:04 16.7 °C 0.3 °C 1022.6 hPa Calm     33 % 0.0 mm 202.0 W/m2 CLR
16:09 16.1 °C -0.2 °C 1022.6 hPa Calm     33 % 0.0 mm 188.0 W/m2 CLR
16:14 16.1 °C -0.2 °C 1022.6 hPa Calm     33 % 0.0 mm 174.0 W/m2 CLR
16:19 15.6 °C -0.3 °C 1022.6 hPa Calm     34 % 0.0 mm 160.0 W/m2 CLR
16:24 15.6 °C -0.3 °C 1022.6 hPa Calm     34 % 0.0 mm 142.0 W/m2 CLR
16:29 15.0 °C -0.8 °C 1022.6 hPa Calm     34 % 0.0 mm 128.0 W/m2 CLR
16:34 15.0 °C -0.8 °C 1022.6 hPa Calm     34 % 0.0 mm 114.0 W/m2 CLR
16:39 14.4 °C -1.2 °C 1022.6 hPa Calm     34 % 0.0 mm 102.0 W/m2 CLR
16:44 14.4 °C -0.8 °C 1022.6 hPa Calm     35 % 0.0 mm 90.0 W/m2 CLR
16:49 13.9 °C -1.3 °C 1022.6 hPa Calm     35 % 0.0 mm 67.0 W/m2 FEW
16:54 13.3 °C -1.4 °C 1022.6 hPa Calm     36 % 0.0 mm 54.0 W/m2 SCT
16:59 13.3 °C -1.4 °C 1022.6 hPa Calm     36 % 0.0 mm 47.0 W/m2 SCT
17:04 12.2 °C -2.4 °C 1022.6 hPa Calm     36 % 0.0 mm 37.0 W/m2 BKN
17:09 11.7 °C -2.6 °C 1022.6 hPa Calm     37 % 0.0 mm 26.0 W/m2 BKN
17:14 11.1 °C -3.1 °C 1022.6 hPa Calm     37 % 0.0 mm 19.0 W/m2 BKN
17:19 10.6 °C -3.6 °C 1022.6 hPa Calm     37 % 0.0 mm 12.0 W/m2 BKN
17:21 10.6 °C -3.2 °C 1022.6 hPa Calm     38 % 0.0 mm 12.0 W/m2 BKN
17:26 10.0 °C -3.7 °C 1022.6 hPa Calm     38 % 0.0 mm 9.0 W/m2 BKN
17:31 9.4 °C -3.8 °C 1022.6 hPa Calm     39 % 0.0 mm 7.0 W/m2 BKN
17:36 8.9 °C -4.3 °C 1022.6 hPa Calm     39 % 0.0 mm 5.0 W/m2 OVC
17:41 8.3 °C -4.5 °C 1022.6 hPa Calm     40 % 0.0 mm 0.0 W/m2 OVC
17:46 8.3 °C -4.2 °C 1022.6 hPa Calm     41 % 0.0 mm 0.0 W/m2 OVC
17:51 7.8 °C -4.3 °C 1022.6 hPa Calm     42 % 0.0 mm 0.0 W/m2 CLR
17:56 7.8 °C -4.3 °C 1022.6 hPa Calm     42 % 0.0 mm 0.0 W/m2 CLR
18:01 7.8 °C -4.1 °C 1022.6 hPa Calm     43 % 0.0 mm 0.0 W/m2 CLR
18:06 7.2 °C -4.6 °C 1022.9 hPa Calm     43 % 0.0 mm 0.0 W/m2 CLR
18:11 7.2 °C -4.6 °C 1022.9 hPa Calm     43 % 0.0 mm 0.0 W/m2 CLR
18:16 7.2 °C -4.6 °C 1022.9 hPa Calm     43 % 0.0 mm 0.0 W/m2 CLR
18:21 6.7 °C -4.7 °C 1022.9 hPa Calm     44 % 0.0 mm 0.0 W/m2 CLR
18:26 6.1 °C -5.3 °C 1022.9 hPa Calm     44 % 0.0 mm 0.0 W/m2 CLR
18:31 6.1 °C -4.9 °C 1022.9 hPa Calm     45 % 0.0 mm 0.0 W/m2 CLR
18:41 5.6 °C -4.6 °C 1023.2 hPa Calm     48 % 0.0 mm 0.0 W/m2 CLR
18:47 6.1 °C -3.8 °C 1022.9 hPa Calm     49 % 0.0 mm 0.0 W/m2 CLR
18:52 5.6 °C -4.1 °C 1023.2 hPa Calm     50 % 0.0 mm 0.0 W/m2 CLR
18:57 5.6 °C -3.8 °C 1023.2 hPa Calm     51 % 0.0 mm 0.0 W/m2 CLR
19:02 5.0 °C -4.3 °C 1023.2 hPa Calm     51 % 0.0 mm 0.0 W/m2 CLR
19:07 4.4 °C -4.6 °C 1023.2 hPa Calm     52 % 0.0 mm 0.0 W/m2 CLR
19:12 4.4 °C -4.6 °C 1023.2 hPa Calm     52 % 0.0 mm 0.0 W/m2 CLR
19:17 3.9 °C -4.8 °C 1023.2 hPa Calm     53 % 0.0 mm 0.0 W/m2 CLR
19:22 3.9 °C -4.8 °C 1023.2 hPa Calm     53 % 0.0 mm 0.0 W/m2 CLR
19:27 3.3 °C -5.1 °C 1023.2 hPa Calm     54 % 0.0 mm 0.0 W/m2 CLR
19:32 3.3 °C -5.1 °C 1023.2 hPa Calm     54 % 0.0 mm 0.0 W/m2 CLR
19:37 2.8 °C -5.6 °C 1023.2 hPa Calm     54 % 0.0 mm 0.0 W/m2 CLR
19:42 2.8 °C -5.4 °C 1023.6 hPa Calm     55 % 0.0 mm 0.0 W/m2 CLR
19:47 2.8 °C -5.2 °C 1023.6 hPa Calm     56 % 0.0 mm 0.0 W/m2 CLR
19:52 2.8 °C -5.2 °C 1023.9 hPa Calm     56 % 0.0 mm 0.0 W/m2 CLR
19:57 2.8 °C -5.2 °C 1023.9 hPa Calm     56 % 0.0 mm 0.0 W/m2 CLR
20:02 2.8 °C -4.9 °C 1023.9 hPa Calm     57 % 0.0 mm 0.0 W/m2 CLR
20:07 2.8 °C -4.9 °C 1023.6 hPa Calm     57 % 0.0 mm 0.0 W/m2 CLR
20:12 2.8 °C -4.9 °C 1023.6 hPa Calm     57 % 0.0 mm 0.0 W/m2 CLR
20:17 2.8 °C -4.7 °C 1023.6 hPa Calm     58 % 0.0 mm 0.0 W/m2 CLR
20:22 2.8 °C -4.7 °C 1023.6 hPa Calm     58 % 0.0 mm 0.0 W/m2 CLR
20:27 2.8 °C -4.7 °C 1023.6 hPa Calm     58 % 0.0 mm 0.0 W/m2 CLR
20:32 2.8 °C -4.7 °C 1023.6 hPa Calm     58 % 0.0 mm 0.0 W/m2 CLR
20:33 2.8 °C -4.7 °C 1023.6 hPa Calm     58 % 0.0 mm 0.0 W/m2 CLR
20:38 2.8 °C -4.4 °C 1023.6 hPa Calm     59 % 0.0 mm 0.0 W/m2 CLR
20:43 2.8 °C -4.4 °C 1023.6 hPa Calm     59 % 0.0 mm 0.0 W/m2 CLR
20:48 2.8 °C -4.4 °C 1023.6 hPa Calm     59 % 0.0 mm 0.0 W/m2 CLR
20:53 2.8 °C -4.4 °C 1023.6 hPa Calm     59 % 0.0 mm 0.0 W/m2 CLR
20:58 2.8 °C -4.4 °C 1023.6 hPa Calm     59 % 0.0 mm 0.0 W/m2 CLR
21:03 2.2 °C -5.0 °C 1023.6 hPa Calm     59 % 0.0 mm 0.0 W/m2 CLR
21:08 2.2 °C -4.8 °C 1023.6 hPa Calm     60 % 0.0 mm 0.0 W/m2 CLR
21:13 2.2 °C -4.8 °C 1023.6 hPa Calm     60 % 0.0 mm 0.0 W/m2 CLR
21:18 2.2 °C -4.8 °C 1023.6 hPa Calm     60 % 0.0 mm 0.0 W/m2 CLR
21:23 2.2 °C -4.6 °C 1023.6 hPa Calm     61 % 0.0 mm 0.0 W/m2 CLR
21:28 2.8 °C -4.0 °C 1023.6 hPa Calm     61 % 0.0 mm 0.0 W/m2 CLR
21:33 2.8 °C -4.0 °C 1023.6 hPa Calm     61 % 0.0 mm 0.0 W/m2 CLR
21:38 3.3 °C -3.5 °C 1023.9 hPa Calm     61 % 0.0 mm 0.0 W/m2 CLR
21:43 3.3 °C -3.3 °C 1023.9 hPa Calm     62 % 0.0 mm 0.0 W/m2 CLR
21:48 3.9 °C -2.9 °C 1023.9 hPa Calm     61 % 0.0 mm 0.0 W/m2 CLR
21:53 3.3 °C -3.5 °C 1023.9 hPa Calm     61 % 0.0 mm 0.0 W/m2 CLR
21:58 3.3 °C -3.5 °C 1023.6 hPa Calm     61 % 0.0 mm 0.0 W/m2 CLR
22:03 3.3 °C -3.5 °C 1023.9 hPa Calm     61 % 0.0 mm 0.0 W/m2 CLR
22:08 3.3 °C -3.5 °C 1023.9 hPa Calm     61 % 0.0 mm 0.0 W/m2 CLR
22:13 3.3 °C -3.5 °C 1023.9 hPa Calm     61 % 0.0 mm 0.0 W/m2 CLR
22:18 3.3 °C -3.3 °C 1023.9 hPa Calm     62 % 0.0 mm 0.0 W/m2 CLR
22:23 2.8 °C -3.6 °C 1023.9 hPa Calm     63 % 0.0 mm 0.0 W/m2 CLR
22:28 2.8 °C -3.4 °C 1023.9 hPa Calm     64 % 0.0 mm 0.0 W/m2 CLR
22:33 2.8 °C -3.4 °C 1023.9 hPa Calm     64 % 0.0 mm 0.0 W/m2 CLR
22:38 2.8 °C -2.9 °C 1024.3 hPa Calm     66 % 0.0 mm 0.0 W/m2 CLR
22:43 2.8 °C -2.9 °C 1024.3 hPa Calm     66 % 0.0 mm 0.0 W/m2 CLR
22:48 2.8 °C -2.9 °C 1024.3 hPa Calm     66 % 0.0 mm 0.0 W/m2 CLR
22:53 2.2 °C -3.5 °C 1024.3 hPa Calm     66 % 0.0 mm 0.0 W/m2 CLR
22:58 2.2 °C -3.3 °C 1024.3 hPa Calm     67 % 0.0 mm 0.0 W/m2 CLR
23:03 2.2 °C -3.3 °C 1024.3 hPa Calm     67 % 0.0 mm 0.0 W/m2 CLR
23:08 2.2 °C -2.9 °C 1024.3 hPa Calm     69 % 0.0 mm 0.0 W/m2 CLR
23:13 2.2 °C -3.1 °C 1024.3 hPa Calm     68 % 0.0 mm 0.0 W/m2 CLR
23:18 2.2 °C -3.3 °C 1024.3 hPa Calm     67 % 0.0 mm 0.0 W/m2 CLR
23:23 2.2 °C -3.3 °C 1024.3 hPa Calm     67 % 0.0 mm 0.0 W/m2 CLR
23:28 2.2 °C -3.5 °C 1024.3 hPa Calm     66 % 0.0 mm 0.0 W/m2 CLR
23:33 2.2 °C -3.3 °C 1024.3 hPa Calm     67 % 0.0 mm 0.0 W/m2 CLR
23:38 2.8 °C -2.7 °C 1024.3 hPa Calm     67 % 0.0 mm 0.0 W/m2 CLR
23:43 2.2 °C -3.3 °C 1024.3 hPa Calm     67 % 0.0 mm 0.0 W/m2 CLR
23:48 2.2 °C -3.7 °C 1024.3 hPa Calm     65 % 0.0 mm 0.0 W/m2 CLR
23:53 2.2 °C -3.5 °C 1024.3 hPa Calm     66 % 0.0 mm 0.0 W/m2 CLR
23:58 1.7 °C -3.6 °C 1024.3 hPa Calm     68 % 0.0 mm 0.0 W/m2 CLR
Lo Temps de Massalio
Compliments of Weather Underground - 1.25 mb